Time;durP1;ratioP1;P1;durP2;ratioP2;P2;SDS_P1;SDS_P2;PMS_P1;PMS_P2;Temp;Humidity;BMP_temperature;BMP_pressure;BME280_temperature;BME280_humidity;BME280_pressure;Samples;Min_cycle;Max_cycle;Signal;HPM_P1;HPM_P2
2022/04/17 00:01:31;;;;;;;4.37;3.13;;;6.00;88.60;;;;;;5060577;28;20933;-89
2022/04/17 00:03:57;;;;;;;3.63;3.33;;;5.80;89.20;;;;;;5032833;28;20440;-89
2022/04/17 00:06:23;;;;;;;3.93;3.53;;;5.70;89.60;;;;;;5034274;28;20500;-88
2022/04/17 00:08:49;;;;;;;4.97;3.30;;;5.70;89.90;;;;;;5050699;28;20187;-88
2022/04/17 00:11:19;;;;;;;3.50;3.23;;;5.70;89.80;;;;;;5056240;28;20675;-88
2022/04/17 00:13:48;;;;;;;6.13;3.67;;;5.70;90.20;;;;;;5036021;28;20435;-88
2022/04/17 00:16:13;;;;;;;5.13;3.67;;;5.70;90.20;;;;;;5036825;28;20437;-89
2022/04/17 00:18:49;;;;;;;4.23;3.83;;;5.70;90.20;;;;;;5040168;28;22384;-88
2022/04/17 00:21:15;;;;;;;3.30;3.10;;;5.70;90.60;;;;;;5033643;28;20429;-89
2022/04/17 00:23:44;;;;;;;4.43;4.03;;;5.60;90.50;;;;;;5042948;28;20452;-89
2022/04/17 00:26:10;;;;;;;4.00;3.53;;;5.60;90.50;;;;;;5059813;28;20441;-89
2022/04/17 00:28:36;;;;;;;3.53;3.23;;;5.60;91.10;;;;;;5038744;28;20450;-90
2022/04/17 00:31:01;;;;;;;4.13;3.73;;;5.50;91.10;;;;;;5051788;28;20188;-90
2022/04/17 00:33:27;;;;;;;4.53;4.10;;;5.40;91.60;;;;;;5057156;28;20188;-88
2022/04/17 00:35:52;;;;;;;5.13;3.93;;;5.40;91.80;;;;;;5056909;28;21984;-88
2022/04/17 00:38:18;;;;;;;4.33;3.93;;;5.30;92.10;;;;;;5063895;28;20221;-88
2022/04/17 00:40:43;;;;;;;3.67;3.37;;;5.30;92.30;;;;;;5029858;28;20186;-88
2022/04/17 00:43:30;;;;;;;4.00;3.60;;;5.20;92.50;;;;;;5033918;28;20398;-88
2022/04/17 00:45:56;;;;;;;4.20;3.40;;;5.30;92.00;;;;;;5034008;28;20616;-88
2022/04/17 00:48:22;;;;;;;4.97;3.43;;;5.30;92.00;;;;;;5039183;28;20430;-88
2022/04/17 00:50:50;;;;;;;4.40;4.00;;;5.30;92.00;;;;;;5035966;28;20443;-88
2022/04/17 00:53:17;;;;;;;4.00;3.70;;;5.40;91.80;;;;;;5060792;28;20434;-88
2022/04/17 00:55:43;;;;;;;4.10;3.70;;;5.40;91.60;;;;;;5064511;28;20549;-88
2022/04/17 00:58:10;;;;;;;4.10;3.80;;;5.50;91.60;;;;;;5035932;28;20480;-89
2022/04/17 01:00:36;;;;;;;3.57;3.33;;;5.30;91.90;;;;;;5030986;28;20186;-88
2022/04/17 01:03:02;;;;;;;3.40;3.10;;;5.30;91.90;;;;;;5041925;28;20442;-89
2022/04/17 01:05:28;;;;;;;4.30;3.90;;;5.20;92.40;;;;;;5029477;28;20453;-88
2022/04/17 01:07:53;;;;;;;4.53;4.03;;;5.00;92.50;;;;;;5048550;28;20671;-88
2022/04/17 01:10:19;;;;;;;4.13;3.73;;;5.00;92.50;;;;;;5047470;28;20183;-89
2022/04/17 01:12:45;;;;;;;6.40;3.60;;;5.10;92.90;;;;;;5034061;28;20493;-89
2022/04/17 01:15:11;;;;;;;4.07;3.77;;;5.00;92.80;;;;;;5059525;28;20183;-88
2022/04/17 01:17:37;;;;;;;3.40;3.20;;;5.00;93.20;;;;;;5034153;28;20479;-88
2022/04/17 01:20:04;;;;;;;4.80;4.40;;;4.90;93.50;;;;;;5054922;28;20501;-89
2022/04/17 01:22:29;;;;;;;5.30;3.90;;;4.70;93.80;;;;;;5028259;28;20182;-89
2022/04/17 01:27:41;;;;;;;4.40;4.00;;;4.70;94.30;;;;;;5047817;28;20196;-89
2022/04/17 01:30:07;;;;;;;4.77;3.90;;;4.60;94.90;;;;;;5039187;28;20636;-89
2022/04/17 01:32:33;;;;;;;4.10;3.80;;;4.80;94.50;;;;;;5033108;28;21021;-89
2022/04/17 01:34:59;;;;;;;5.77;3.60;;;4.80;94.30;;;;;;5041745;28;20468;-88
2022/04/17 01:37:25;;;;;;;4.77;3.70;;;4.60;94.60;;;;;;5043851;28;20943;-89
2022/04/17 01:39:50;;;;;;;5.00;4.50;;;4.50;95.10;;;;;;5045692;28;20278;-89
2022/04/17 01:42:16;;;;;;;4.90;4.50;;;4.50;95.10;;;;;;5029881;28;20581;-89
2022/04/17 01:44:42;;;;;;;4.50;4.03;;;4.40;95.20;;;;;;5045525;28;20655;-88
2022/04/17 01:47:08;;;;;;;5.07;4.60;;;4.30;95.50;;;;;;5051587;28;20190;-87
2022/04/17 01:49:34;;;;;;;4.03;3.60;;;4.30;96.10;;;;;;5038529;28;20519;-87
2022/04/17 01:52:01;;;;;;;4.60;4.20;;;4.50;95.70;;;;;;5052103;28;20274;-88
2022/04/17 01:54:27;;;;;;;5.40;4.33;;;4.50;95.60;;;;;;5039476;28;20453;-88
2022/04/17 01:56:54;;;;;;;4.00;3.70;;;4.40;96.20;;;;;;5034563;28;20923;-87
2022/04/17 01:59:24;;;;;;;4.20;3.80;;;4.30;96.40;;;;;;5044087;28;20445;-89
2022/04/17 02:01:50;;;;;;;4.63;4.20;;;4.30;97.00;;;;;;5024915;28;20466;-89
2022/04/17 02:04:16;;;;;;;6.13;4.03;;;4.50;96.40;;;;;;5043829;28;20922;-89
2022/04/17 02:06:43;;;;;;;4.53;4.13;;;4.60;96.20;;;;;;5027448;28;20429;-89
2022/04/17 02:09:14;;;;;;;4.47;4.17;;;4.50;96.30;;;;;;5047822;28;20656;-88
2022/04/17 02:11:41;;;;;;;4.33;3.93;;;4.40;96.60;;;;;;5050250;28;20789;-88
2022/04/17 02:14:09;;;;;;;4.70;4.30;;;4.20;96.90;;;;;;5036585;28;20472;-89
2022/04/17 02:16:34;;;;;;;4.97;4.40;;;4.20;97.70;;;;;;5047856;28;20441;-87
2022/04/17 02:19:00;;;;;;;5.13;4.60;;;4.00;98.10;;;;;;5047372;28;20611;-88
2022/04/17 02:21:28;;;;;;;4.80;4.40;;;3.70;99.50;;;;;;5039892;28;21235;-88
2022/04/17 02:23:53;;;;;;;5.23;4.73;;;3.50;99.90;;;;;;5061171;28;20194;-88
2022/04/17 02:26:19;;;;;;;5.53;5.00;;;3.50;99.90;;;;;;5055265;28;21105;-89
2022/04/17 02:28:46;;;;;;;6.23;4.97;;;3.50;99.90;;;;;;5035448;28;20184;-88
2022/04/17 02:31:12;;;;;;;4.97;4.53;;;3.50;99.90;;;;;;5033455;28;20480;-88
2022/04/17 02:33:38;;;;;;;4.80;4.40;;;3.60;99.90;;;;;;5032325;28;20499;-88
2022/04/17 02:36:05;;;;;;;5.47;4.90;;;3.70;99.90;;;;;;5029490;28;20429;-88
2022/04/17 02:38:31;;;;;;;5.63;5.00;;;3.80;99.90;;;;;;5041805;28;20459;-88
2022/04/17 02:40:57;;;;;;;4.10;3.80;;;4.00;99.90;;;;;;5030925;28;20905;-89
2022/04/17 02:43:23;;;;;;;5.10;4.70;;;4.00;99.80;;;;;;5050258;28;20441;-88
2022/04/17 02:45:52;;;;;;;5.57;5.17;;;4.10;99.70;;;;;;5032782;28;20293;-88
2022/04/17 02:48:18;;;;;;;6.63;4.60;;;3.90;99.90;;;;;;5044152;28;20193;-88
2022/04/17 02:50:44;;;;;;;10.30;4.70;;;3.90;99.90;;;;;;5037036;28;20587;-88
2022/04/17 02:53:09;;;;;;;4.87;4.47;;;3.80;99.90;;;;;;5040388;28;20454;-88
2022/04/17 02:55:35;;;;;;;4.60;3.80;;;3.80;99.90;;;;;;5055944;28;20194;-88
2022/04/17 02:58:00;;;;;;;5.87;4.60;;;3.90;99.90;;;;;;5056436;28;20245;-88
2022/04/17 03:00:31;;;;;;;5.33;4.83;;;4.00;99.90;;;;;;5048197;28;20187;-88
2022/04/17 03:05:41;;;;;;;5.63;4.90;;;3.90;99.90;;;;;;5045190;28;20490;-87
2022/04/17 03:08:11;;;;;;;5.40;4.90;;;3.90;99.90;;;;;;5055340;28;21036;-87
2022/04/17 03:10:39;;;;;;;6.60;5.17;;;3.90;99.90;;;;;;5032863;28;20193;-88
2022/04/17 03:13:05;;;;;;;5.93;5.43;;;3.90;99.90;;;;;;5048075;28;20453;-87
2022/04/17 03:15:37;;;;;;;5.70;5.20;;;3.90;99.90;;;;;;5050193;28;20452;-87
2022/04/17 03:18:06;;;;;;;5.50;5.07;;;3.80;99.90;;;;;;5040223;28;20937;-88
2022/04/17 03:20:32;;;;;;;5.60;5.10;;;3.70;99.90;;;;;;5047703;28;20584;-88
2022/04/17 03:22:58;;;;;;;5.00;4.60;;;3.70;99.90;;;;;;5058210;28;20957;-89
2022/04/17 03:25:23;;;;;;;4.90;4.50;;;3.70;99.90;;;;;;5054926;28;20216;-90
2022/04/17 03:27:49;;;;;;;5.10;4.70;;;3.90;99.90;;;;;;5048925;28;20233;-89
2022/04/17 03:30:16;;;;;;;7.37;5.37;;;3.80;99.90;;;;;;5031572;28;21182;-88
2022/04/17 03:32:51;;;;;;;5.20;4.80;;;3.80;99.90;;;;;;5046217;28;20620;-88
2022/04/17 03:35:18;;;;;;;4.70;4.40;;;3.70;99.90;;;;;;5030443;28;21032;-87
2022/04/17 03:37:44;;;;;;;6.00;4.40;;;3.80;99.90;;;;;;5051627;28;20496;-88
2022/04/17 03:40:11;;;;;;;6.03;5.43;;;3.70;99.90;;;;;;5031024;28;20760;-88
2022/04/17 03:42:38;;;;;;;6.93;6.13;;;3.70;99.90;;;;;;5060869;28;20448;-88
2022/04/17 03:45:08;;;;;;;5.50;5.10;;;3.60;99.90;;;;;;5048067;28;20436;-89
2022/04/17 03:47:34;;;;;;;9.17;6.53;;;3.50;99.90;;;;;;5033315;28;20803;-88
2022/04/17 03:50:00;;;;;;;6.40;5.60;;;3.60;99.90;;;;;;5035642;28;20433;-88
2022/04/17 03:52:25;;;;;;;5.90;5.00;;;3.60;99.90;;;;;;5048271;28;20441;-89
2022/04/17 03:54:51;;;;;;;4.97;4.53;;;3.40;99.90;;;;;;5047053;28;20198;-88
2022/04/17 03:57:17;;;;;;;6.20;5.00;;;3.40;99.90;;;;;;5050097;28;20289;-89
2022/04/17 03:59:42;;;;;;;6.03;4.83;;;3.30;99.90;;;;;;5036043;28;20288;-89
2022/04/17 04:02:08;;;;;;;5.50;4.80;;;3.10;99.90;;;;;;5051298;28;20178;-88
2022/04/17 04:04:34;;;;;;;5.80;5.30;;;3.20;99.90;;;;;;5049034;28;20187;-88
2022/04/17 04:07:00;;;;;;;5.60;5.17;;;3.20;99.90;;;;;;5037324;28;20205;-89
2022/04/17 04:09:25;;;;;;;5.33;4.93;;;3.30;99.90;;;;;;5037484;28;20440;-89
2022/04/17 04:11:51;;;;;;;5.73;5.13;;;3.30;99.90;;;;;;5055591;28;20193;-89
2022/04/17 04:14:17;;;;;;;5.00;4.60;;;3.30;99.90;;;;;;5031110;28;20175;-88
2022/04/17 04:16:42;;;;;;;5.50;5.07;;;3.30;99.90;;;;;;5031420;28;20195;-88
2022/04/17 04:19:09;;;;;;;6.20;5.70;;;3.20;99.90;;;;;;5039834;28;20330;-88
2022/04/17 04:21:47;;;;;;;5.17;4.67;;;3.30;99.90;;;;;;5050781;28;20209;-88
2022/04/17 04:24:13;;;;;;;5.23;4.80;;;3.20;99.90;;;;;;5038165;28;24399;-89
2022/04/17 04:26:39;;;;;;;5.30;4.73;;;3.20;99.90;;;;;;5052560;28;21000;-89
2022/04/17 04:29:05;;;;;;;5.97;5.20;;;3.20;99.90;;;;;;5050486;28;20441;-89
2022/04/17 04:31:31;;;;;;;5.07;4.67;;;3.40;99.90;;;;;;5043623;28;21141;-88
2022/04/17 04:33:57;;;;;;;5.07;4.57;;;3.30;99.90;;;;;;5029806;28;20472;-89
2022/04/17 04:36:22;;;;;;;5.47;4.33;;;3.20;99.90;;;;;;5032935;28;20194;-86
2022/04/17 04:38:48;;;;;;;5.07;4.57;;;3.10;99.90;;;;;;5046954;28;20219;-86
2022/04/17 04:41:13;;;;;;;4.57;4.17;;;3.20;99.90;;;;;;5063473;28;20717;-85
2022/04/17 04:43:44;;;;;;;6.07;5.50;;;3.20;99.90;;;;;;5035332;28;20778;-85
2022/04/17 04:46:10;;;;;;;6.00;4.50;;;3.20;99.90;;;;;;5034202;28;20430;-86
2022/04/17 04:51:26;;;;;;;5.07;4.57;;;3.50;99.90;;;;;;5054435;28;20655;-86
2022/04/17 04:53:52;;;;;;;4.77;4.30;;;3.60;99.90;;;;;;5049668;28;20449;-86
2022/04/17 04:56:19;;;;;;;5.13;4.67;;;3.70;99.90;;;;;;5031413;28;20507;-86
2022/04/17 04:58:45;;;;;;;5.07;4.57;;;3.70;99.90;;;;;;5054608;28;20484;-86
2022/04/17 05:01:11;;;;;;;4.97;4.47;;;3.80;99.90;;;;;;5058868;28;20429;-86
2022/04/17 05:03:37;;;;;;;5.23;4.67;;;3.80;99.90;;;;;;5055803;28;20985;-86
2022/04/17 05:06:07;;;;;;;4.10;3.80;;;3.70;99.90;;;;;;5049707;28;20969;-85
2022/04/17 05:08:36;;;;;;;6.47;4.20;;;3.70;99.90;;;;;;5063739;28;20433;-85
2022/04/17 05:11:02;;;;;;;4.90;4.50;;;3.80;99.90;;;;;;5049563;28;20521;-85
2022/04/17 05:13:39;;;;;;;6.10;4.30;;;3.90;99.90;;;;;;5042769;28;20491;-85
2022/04/17 05:16:16;;;;;;;4.93;4.00;;;4.00;99.90;;;;;;5045950;28;20278;-85
2022/04/17 05:18:47;;;;;;;5.30;4.80;;;4.10;99.90;;;;;;5056022;28;20482;-85
2022/04/17 05:21:13;;;;;;;5.23;4.73;;;4.30;99.90;;;;;;5046492;28;20437;-86
2022/04/17 05:23:39;;;;;;;4.53;4.17;;;4.30;99.90;;;;;;5058404;28;20441;-86
2022/04/17 05:26:05;;;;;;;3.33;3.13;;;4.40;99.90;;;;;;5055777;28;20466;-87
2022/04/17 05:28:37;;;;;;;5.37;3.80;;;4.40;99.90;;;;;;5049435;28;20195;-85
2022/04/17 05:31:03;;;;;;;4.27;3.47;;;4.60;99.20;;;;;;5048837;28;21050;-85
2022/04/17 05:33:29;;;;;;;4.53;4.00;;;4.60;98.80;;;;;;5030948;28;20531;-85
2022/04/17 05:35:55;;;;;;;3.53;3.33;;;4.70;99.40;;;;;;5047212;28;20560;-86
2022/04/17 05:38:20;;;;;;;4.30;3.40;;;4.80;99.30;;;;;;5035192;28;20580;-86
2022/04/17 05:40:51;;;;;;;4.80;4.00;;;4.90;99.90;;;;;;5040081;28;20640;-86
2022/04/17 05:43:18;;;;;;;4.50;4.10;;;4.90;99.80;;;;;;5050771;28;20175;-86
2022/04/17 05:45:46;;;;;;;3.87;3.57;;;5.00;99.90;;;;;;5045299;28;20445;-86
2022/04/17 05:48:28;;;;;;;6.27;3.67;;;5.10;99.10;;;;;;5045865;28;20454;-86
2022/04/17 05:50:59;;;;;;;3.60;3.30;;;5.40;98.30;;;;;;5034730;28;20456;-86
2022/04/17 05:53:36;;;;;;;4.27;3.87;;;5.50;97.90;;;;;;5041945;28;21048;-85
2022/04/17 05:56:02;;;;;;;4.30;3.90;;;5.50;97.80;;;;;;5030529;28;20453;-87
2022/04/17 05:58:33;;;;;;;4.10;3.70;;;5.40;97.90;;;;;;5017693;28;20485;-90
2022/04/17 06:01:03;;;;;;;3.97;3.67;;;5.50;97.70;;;;;;5043752;28;20449;-90
2022/04/17 06:03:29;;;;;;;4.93;4.43;;;5.60;97.50;;;;;;5042883;28;20446;-92
2022/04/17 06:05:57;;;;;;;3.80;3.50;;;5.60;97.60;;;;;;5035418;28;21454;-89
2022/04/17 06:08:24;;;;;;;3.70;3.40;;;5.80;98.30;;;;;;5032200;28;20200;-91
2022/04/17 06:10:50;;;;;;;3.17;2.97;;;5.80;97.10;;;;;;5014523;28;20895;-88
2022/04/17 06:13:16;;;;;;;4.97;3.90;;;5.90;97.20;;;;;;5034522;28;20538;-89
2022/04/17 06:15:41;;;;;;;4.37;3.60;;;5.90;96.80;;;;;;5045967;28;20471;-90
2022/04/17 06:18:07;;;;;;;5.17;4.63;;;6.00;97.30;;;;;;5028702;28;20446;-89
2022/04/17 06:20:33;;;;;;;3.70;3.40;;;6.20;96.20;;;;;;5040134;28;20186;-89
2022/04/17 06:23:01;;;;;;;4.10;3.80;;;6.20;95.90;;;;;;5030921;28;21485;-91
2022/04/17 06:26:06;;;;;;;5.00;4.60;;;6.30;96.30;;;;;;5050672;28;20174;-89
2022/04/17 06:28:32;;;;;;;3.47;3.17;;;6.40;95.10;;;;;;5046495;28;21214;-88
2022/04/17 06:31:00;;;;;;;3.67;3.40;;;6.50;94.80;;;;;;5045169;28;20443;-86
2022/04/17 06:33:37;;;;;;;3.40;3.10;;;6.50;96.10;;;;;;5035638;28;20190;-87
2022/04/17 06:36:03;;;;;;;3.27;3.07;;;6.60;94.80;;;;;;5021994;28;22191;-88
2022/04/17 06:38:34;;;;;;;3.47;3.17;;;6.60;94.70;;;;;;5006973;28;21336;-89
2022/04/17 06:41:05;;;;;;;3.73;3.43;;;6.70;94.20;;;;;;5051384;28;20261;-92
2022/04/17 06:44:28;;;;;;;3.70;3.40;;;6.80;94.20;;;;;;5019721;28;20567;-85
2022/04/17 06:46:54;;;;;;;3.77;3.43;;;7.10;94.00;;;;;;4958608;28;20432;-85
2022/04/17 06:49:23;;;;;;;3.67;3.37;;;6.80;93.20;;;;;;5012937;28;20458;-93
2022/04/17 06:51:57;;;;;;;3.43;3.13;;;7.00;93.40;;;;;;5014955;28;20193;-90
2022/04/17 06:54:22;;;;;;;2.90;2.70;;;7.30;94.10;;;;;;5025048;28;20449;-92
2022/04/17 06:56:48;;;;;;;4.03;3.73;;;7.50;93.50;;;;;;5046972;28;20843;-91
2022/04/17 06:59:15;;;;;;;3.67;3.27;;;7.40;92.60;;;;;;5071427;28;20590;-89
2022/04/17 07:01:43;;;;;;;3.67;3.37;;;7.40;93.10;;;;;;5071845;28;20182;-89
2022/04/17 07:04:08;;;;;;;3.83;3.10;;;7.50;92.90;;;;;;5049021;28;20588;-86
2022/04/17 07:06:34;;;;;;;3.60;3.30;;;7.70;93.10;;;;;;5031678;28;20441;-89
2022/04/17 07:09:03;;;;;;;3.50;3.20;;;7.90;92.90;;;;;;5045526;28;20233;-92
2022/04/17 07:11:34;;;;;;;3.00;2.80;;;8.00;92.60;;;;;;5031857;28;20444;-88
2022/04/17 07:14:00;;;;;;;3.87;3.57;;;8.10;92.30;;;;;;5044841;28;20479;-93
2022/04/17 07:16:35;;;;;;;3.43;3.13;;;8.20;92.60;;;;;;5027003;28;20526;-92
2022/04/17 07:19:03;;;;;;;4.03;3.67;;;8.30;91.40;;;;;;5028411;28;22479;-88
2022/04/17 07:21:29;;;;;;;3.43;3.13;;;8.30;91.60;;;;;;5025376;28;20461;-87
2022/04/17 07:23:54;;;;;;;9.00;6.90;;;8.40;91.30;;;;;;5044219;28;20447;-88
2022/04/17 07:26:20;;;;;;;4.90;4.40;;;8.60;91.40;;;;;;5036687;28;20277;-88
2022/04/17 07:28:46;;;;;;;3.83;3.37;;;8.90;92.30;;;;;;5036458;28;20285;-89
2022/04/17 07:31:21;;;;;;;3.80;3.40;;;9.00;91.20;;;;;;5038521;28;20200;-89
2022/04/17 07:33:49;;;;;;;3.80;3.27;;;9.30;90.30;;;;;;5045429;28;20440;-89
2022/04/17 07:36:23;;;;;;;4.80;3.43;;;9.00;90.40;;;;;;5039485;28;20445;-90
2022/04/17 07:38:51;;;;;;;3.53;3.10;;;9.10;90.30;;;;;;5050488;28;20480;-90
2022/04/17 07:41:20;;;;;;;4.00;3.80;;;9.20;90.20;;;;;;5039999;28;20425;-90
2022/04/17 07:43:48;;;;;;;3.70;3.40;;;9.90;91.50;;;;;;5037206;28;20493;-90
2022/04/17 07:46:13;;;;;;;4.50;3.70;;;9.40;91.90;;;;;;5059680;28;20430;-89
2022/04/17 07:48:39;;;;;;;3.03;2.83;;;9.50;90.60;;;;;;5031739;28;20182;-90
2022/04/17 07:51:05;;;;;;;3.43;3.13;;;9.50;90.40;;;;;;5033515;28;21022;-90
2022/04/17 07:53:31;;;;;;;3.33;3.13;;;9.70;87.60;;;;;;5030009;28;20554;-90
2022/04/17 07:55:56;;;;;;;3.93;2.63;;;9.70;89.90;;;;;;5044297;28;20183;-91
2022/04/17 07:58:24;;;;;;;5.03;2.83;;;9.80;84.80;;;;;;5054775;28;20515;-90
2022/04/17 08:00:59;;;;;;;3.47;2.77;;;9.90;83.20;;;;;;5060186;28;20184;-89
2022/04/17 08:03:35;;;;;;;3.20;2.90;;;9.90;81.60;;;;;;5051774;28;21607;-90
2022/04/17 08:06:07;;;;;;;3.00;2.60;;;10.00;81.60;;;;;;5065120;28;20509;-89
2022/04/17 08:08:34;;;;;;;2.83;2.60;;;10.30;79.00;;;;;;5031344;28;20943;-90
2022/04/17 08:11:12;;;;;;;2.80;2.60;;;10.40;76.80;;;;;;5024778;28;20437;-90
2022/04/17 08:13:37;;;;;;;3.50;3.07;;;10.60;73.20;;;;;;5033032;28;20477;-90
2022/04/17 08:16:09;;;;;;;2.77;2.57;;;10.50;74.90;;;;;;5044038;28;20429;-89
2022/04/17 08:18:36;;;;;;;2.90;2.60;;;10.70;71.10;;;;;;5051566;28;20481;-90
2022/04/17 08:21:07;;;;;;;2.97;2.67;;;10.80;76.90;;;;;;5049188;28;20453;-90
2022/04/17 08:23:35;;;;;;;3.23;2.33;;;11.10;73.90;;;;;;5062606;28;20444;-90
2022/04/17 08:26:01;;;;;;;2.90;2.70;;;10.90;70.20;;;;;;5064282;28;20436;-88
2022/04/17 08:28:27;;;;;;;2.47;2.27;;;10.70;71.10;;;;;;5046185;28;20791;-90
2022/04/17 08:30:53;;;;;;;2.40;2.20;;;10.80;73.30;;;;;;5057307;28;20428;-91
2022/04/17 08:33:18;;;;;;;4.73;3.10;;;10.90;75.60;;;;;;5070081;28;20275;-90
2022/04/17 08:35:46;;;;;;;2.63;2.43;;;11.00;74.10;;;;;;5072524;28;20183;-91
2022/04/17 08:38:14;;;;;;;3.37;2.73;;;11.20;71.80;;;;;;5074615;28;20230;-91
2022/04/17 08:40:40;;;;;;;2.80;2.60;;;11.40;76.10;;;;;;5071163;28;20833;-90
2022/04/17 08:43:08;;;;;;;2.47;2.30;;;11.30;69.70;;;;;;5056096;28;21219;-90
2022/04/17 08:45:34;;;;;;;2.83;2.33;;;11.20;68.30;;;;;;5034647;28;21184;-91
2022/04/17 08:48:01;;;;;;;2.67;2.47;;;11.30;70.80;;;;;;5055817;28;20516;-90
2022/04/17 08:50:27;;;;;;;2.80;2.60;;;11.50;72.40;;;;;;5042397;28;20250;-90
2022/04/17 08:52:53;;;;;;;3.07;2.87;;;11.50;70.30;;;;;;5062844;28;21285;-90
2022/04/17 08:55:19;;;;;;;2.90;2.70;;;11.40;70.60;;;;;;5064069;28;20241;-91
2022/04/17 08:57:45;;;;;;;2.70;2.50;;;11.60;73.90;;;;;;5033374;28;20480;-91
2022/04/17 09:00:14;;;;;;;2.43;2.23;;;11.90;74.10;;;;;;5034053;28;20453;-90
2022/04/17 09:02:40;;;;;;;2.87;2.63;;;12.00;69.80;;;;;;5040553;28;20189;-90
2022/04/17 09:05:07;;;;;;;2.67;2.47;;;12.00;72.10;;;;;;5032259;28;20433;-91
2022/04/17 09:07:53;;;;;;;3.33;2.60;;;12.00;72.20;;;;;;5049105;28;20440;-91
2022/04/17 09:10:29;;;;;;;2.77;2.50;;;12.10;74.10;;;;;;5053650;28;20468;-91
2022/04/17 09:12:56;;;;;;;3.23;2.60;;;12.20;72.10;;;;;;5037490;28;20437;-90
2022/04/17 09:15:23;;;;;;;2.90;2.70;;;12.10;71.10;;;;;;5031008;28;20452;-90
2022/04/17 09:17:50;;;;;;;3.60;3.00;;;12.10;71.90;;;;;;5040773;28;20541;-90
2022/04/17 09:20:22;;;;;;;2.40;2.20;;;12.30;73.90;;;;;;5043226;28;20484;-91
2022/04/17 09:22:49;;;;;;;2.73;2.53;;;12.70;68.10;;;;;;5036556;28;20680;-90
2022/04/17 09:25:15;;;;;;;2.60;2.40;;;12.90;69.40;;;;;;5089218;28;20801;-91
2022/04/17 09:27:54;;;;;;;2.33;2.20;;;12.80;63.00;;;;;;5079005;28;20457;-90
2022/04/17 09:30:32;;;;;;;2.40;2.20;;;12.70;64.20;;;;;;5045375;28;20448;-91
2022/04/17 09:33:02;;;;;;;2.77;2.57;;;12.90;70.30;;;;;;5055354;28;20789;-91
2022/04/17 09:35:27;;;;;;;2.30;2.20;;;12.80;66.10;;;;;;5044008;28;20441;-91
2022/04/17 09:38:09;;;;;;;2.30;2.10;;;12.70;61.90;;;;;;5033745;28;20474;-90
2022/04/17 09:40:37;;;;;;;2.30;2.10;;;12.60;63.40;;;;;;5031651;28;20183;-91
2022/04/17 09:43:17;;;;;;;2.33;2.23;;;12.60;61.90;;;;;;5049602;28;20471;-91
2022/04/17 09:45:59;;;;;;;2.90;2.70;;;12.40;62.90;;;;;;5052790;28;20528;-92
2022/04/17 09:48:28;;;;;;;2.20;2.00;;;12.70;67.00;;;;;;5054548;28;20461;-92
2022/04/17 09:50:53;;;;;;;2.37;1.93;;;12.90;64.60;;;;;;5050932;28;20443;-92
2022/04/17 09:53:33;;;;;;;2.73;2.17;;;13.30;63.70;;;;;;5058563;28;20440;-91
2022/04/17 09:56:10;;;;;;;2.80;2.60;;;13.50;60.10;;;;;;5060212;28;20243;-91
2022/04/17 09:58:45;;;;;;;2.93;2.40;;;13.50;65.50;;;;;;5046452;28;20506;-91
2022/04/17 10:01:15;;;;;;;3.80;2.60;;;13.50;61.70;;;;;;5032842;28;20475;-91
2022/04/17 10:03:42;;;;;;;2.40;2.13;;;13.40;61.00;;;;;;5054266;28;20463;-90
2022/04/17 10:06:11;;;;;;;3.40;3.10;;;13.60;65.80;;;;;;5049666;28;20441;-90
2022/04/17 10:08:39;;;;;;;2.50;2.37;;;13.50;64.00;;;;;;5047460;28;20890;-91
2022/04/17 10:11:04;;;;;;;2.90;2.70;;;13.70;66.30;;;;;;5051209;28;20879;-91
2022/04/17 10:13:32;;;;;;;2.70;2.50;;;14.00;64.90;;;;;;5034862;28;20725;-91
2022/04/17 10:15:59;;;;;;;2.83;2.63;;;14.30;62.70;;;;;;5035609;28;20183;-91
2022/04/17 10:18:44;;;;;;;2.60;2.40;;;14.40;65.50;;;;;;5050472;28;20568;-90
2022/04/17 10:21:11;;;;;;;2.73;2.53;;;14.50;60.30;;;;;;5052095;28;20432;-91
2022/04/17 10:23:42;;;;;;;2.20;2.10;;;14.20;59.90;;;;;;5059793;28;20463;-90
2022/04/17 10:26:09;;;;;;;2.63;2.43;;;14.30;60.10;;;;;;5036725;28;20434;-91
2022/04/17 10:28:41;;;;;;;2.57;2.30;;;14.20;59.60;;;;;;5038182;28;20553;-91
2022/04/17 10:31:20;;;;;;;3.17;2.47;;;14.10;60.20;;;;;;5033418;28;20429;-91
2022/04/17 10:34:01;;;;;;;2.40;2.20;;;14.30;58.70;;;;;;5058790;28;20453;-90
2022/04/17 10:36:57;;;;;;;2.70;2.07;;;14.50;58.80;;;;;;5065744;28;20471;-91
2022/04/17 10:39:36;;;;;;;3.00;2.40;;;14.40;56.10;;;;;;5033650;28;20452;-91
2022/04/17 10:42:02;;;;;;;2.07;1.87;;;14.40;59.70;;;;;;5064774;28;20520;-91
2022/04/17 10:44:32;;;;;;;2.43;2.23;;;14.70;61.30;;;;;;5044956;28;20540;-91
2022/04/17 10:47:07;;;;;;;2.03;1.93;;;15.00;61.80;;;;;;5054926;28;20183;-91
2022/04/17 10:49:50;;;;;;;2.07;1.90;;;14.90;57.90;;;;;;5037308;28;21097;-91
2022/04/17 10:52:27;;;;;;;1.90;1.70;;;15.00;57.20;;;;;;5039221;28;20769;-91
2022/04/17 10:54:53;;;;;;;2.40;2.20;;;15.40;54.20;;;;;;5052321;28;20433;-91
2022/04/17 10:57:25;;;;;;;2.30;2.07;;;15.20;55.40;;;;;;5047232;28;20464;-90
2022/04/17 11:00:32;;;;;;;3.17;2.47;;;15.20;54.20;;;;;;5048720;28;20277;-91
2022/04/17 11:03:00;;;;;;;1.90;1.80;;;15.40;56.40;;;;;;5060744;28;20862;-91
2022/04/17 11:08:25;;;;;;;2.10;2.00;;;15.30;54.50;;;;;;5048301;28;20773;-91
2022/04/17 11:11:00;;;;;;;2.03;1.83;;;15.20;54.90;;;;;;5049610;28;20437;-91
2022/04/17 11:13:26;;;;;;;1.83;1.73;;;14.80;52.00;;;;;;5026013;28;20448;-90
2022/04/17 11:15:55;;;;;;;1.83;1.70;;;15.00;55.50;;;;;;5032824;28;20437;-90
2022/04/17 11:18:24;;;;;;;5.63;3.73;;;15.20;53.30;;;;;;5032701;28;20477;-90
2022/04/17 11:20:54;;;;;;;4.17;3.77;;;15.20;52.40;;;;;;5038227;28;20433;-91
2022/04/17 11:23:48;;;;;;;6.90;6.20;;;15.50;56.10;;;;;;5055786;28;20444;-91
2022/04/17 11:26:13;;;;;;;1.97;1.87;;;15.50;54.40;;;;;;5053796;28;20770;-90
2022/04/17 11:28:39;;;;;;;1.90;1.80;;;15.60;56.70;;;;;;5059870;28;20578;-90
2022/04/17 11:31:05;;;;;;;3.43;2.00;;;15.50;54.80;;;;;;5035293;28;20179;-90
2022/04/17 11:33:31;;;;;;;2.67;2.47;;;15.60;54.30;;;;;;5051717;28;20248;-91
2022/04/17 11:35:57;;;;;;;1.90;1.80;;;16.10;56.50;;;;;;5044784;28;20189;-91
2022/04/17 11:38:23;;;;;;;1.90;1.70;;;16.00;50.90;;;;;;5048723;28;20262;-91
2022/04/17 11:41:07;;;;;;;2.03;1.70;;;16.10;51.00;;;;;;5038738;28;20440;-91
2022/04/17 11:43:57;;;;;;;1.90;1.80;;;16.30;51.60;;;;;;5047887;28;20198;-90
2022/04/17 11:46:25;;;;;;;1.93;1.80;;;16.50;54.40;;;;;;5052499;28;20437;-91
2022/04/17 11:48:56;;;;;;;2.60;2.23;;;16.60;51.10;;;;;;5049383;28;20444;-91
2022/04/17 11:51:25;;;;;;;2.00;1.90;;;16.50;53.80;;;;;;5057721;28;20465;-91
2022/04/17 11:53:54;;;;;;;2.60;2.10;;;16.70;53.60;;;;;;5052585;28;20437;-92
2022/04/17 11:56:24;;;;;;;2.23;2.07;;;16.70;51.70;;;;;;5037882;28;20457;-91
2022/04/17 11:59:03;;;;;;;2.20;2.00;;;17.10;49.30;;;;;;5032630;28;20559;-90
2022/04/17 12:01:29;;;;;;;2.37;2.17;;;17.30;54.90;;;;;;5052430;28;20554;-91
2022/04/17 12:03:56;;;;;;;3.13;2.07;;;17.40;51.10;;;;;;5043846;28;20450;-90
2022/04/17 12:06:32;;;;;;;3.50;1.77;;;17.00;53.00;;;;;;5056095;28;20236;-91
2022/04/17 12:08:57;;;;;;;3.17;2.20;;;17.30;53.60;;;;;;5032085;28;20446;-92
2022/04/17 12:11:23;;;;;;;3.07;2.20;;;17.50;52.60;;;;;;5034421;28;20447;-92
2022/04/17 12:13:55;;;;;;;3.67;2.07;;;17.00;52.90;;;;;;5049228;28;20182;-90
2022/04/17 12:16:20;;;;;;;1.70;1.60;;;16.80;52.40;;;;;;5049982;28;20202;-91
2022/04/17 12:18:55;;;;;;;2.13;2.00;;;17.10;50.30;;;;;;5032417;28;21085;-91
2022/04/17 12:21:28;;;;;;;2.30;2.20;;;17.40;48.10;;;;;;5055630;28;20344;-91
2022/04/17 12:23:54;;;;;;;2.50;2.30;;;17.30;53.60;;;;;;5052540;28;20544;-92
2022/04/17 12:26:20;;;;;;;1.80;1.70;;;17.20;53.50;;;;;;5051452;28;20432;-90
2022/04/17 12:28:47;;;;;;;2.77;2.30;;;17.30;52.40;;;;;;5045208;28;20441;-89
2022/04/17 12:31:14;;;;;;;2.30;2.10;;;17.40;52.00;;;;;;5047286;28;24618;-89
2022/04/17 12:33:40;;;;;;;2.50;2.30;;;17.40;53.10;;;;;;5029772;28;20433;-90
2022/04/17 12:36:12;;;;;;;2.60;2.40;;;17.60;49.40;;;;;;5031350;28;21133;-89
2022/04/17 12:38:56;;;;;;;2.63;2.27;;;17.90;50.40;;;;;;5036678;28;20273;-90
2022/04/17 12:41:26;;;;;;;2.40;2.20;;;17.60;53.20;;;;;;5050911;28;20483;-89
2022/04/17 12:43:52;;;;;;;3.70;2.20;;;17.40;53.40;;;;;;5047278;28;20492;-89
2022/04/17 12:46:32;;;;;;;2.23;2.03;;;17.50;51.50;;;;;;5036169;28;20772;-89
2022/04/17 12:49:15;;;;;;;3.03;2.40;;;17.50;55.10;;;;;;5052949;28;20502;-89
2022/04/17 12:51:55;;;;;;;2.00;1.90;;;17.80;54.30;;;;;;5035174;28;20433;-90
2022/04/17 12:54:21;;;;;;;2.30;2.20;;;18.10;53.30;;;;;;5050976;28;20773;-90
2022/04/17 12:56:50;;;;;;;2.37;2.27;;;18.10;53.20;;;;;;5062927;28;20451;-90
2022/04/17 12:59:25;;;;;;;2.47;1.90;;;17.80;51.90;;;;;;5047136;28;20488;-89
2022/04/17 13:01:50;;;;;;;2.20;2.10;;;18.00;51.80;;;;;;5031297;28;20445;-89
2022/04/17 13:04:36;;;;;;;2.17;1.97;;;17.60;49.70;;;;;;5047415;28;20175;-89
2022/04/17 13:07:22;;;;;;;1.73;1.63;;;18.00;50.80;;;;;;5050431;28;21375;-89
2022/04/17 13:09:54;;;;;;;2.30;2.10;;;17.80;53.40;;;;;;5058983;28;20436;-89
2022/04/17 13:12:35;;;;;;;2.03;1.83;;;17.80;52.40;;;;;;5049176;28;20445;-90
2022/04/17 13:15:05;;;;;;;2.33;2.13;;;17.80;54.20;;;;;;5047204;28;20460;-89